createdAt,value
2022-09-20T00:00:23.822Z,1012.10
2022-09-20T00:01:23.859Z,1012.10
2022-09-20T00:02:23.805Z,1012.11
2022-09-20T00:03:23.793Z,1012.12
2022-09-20T00:04:23.783Z,1012.11
2022-09-20T00:05:23.825Z,1012.12
2022-09-20T00:06:23.765Z,1012.15
2022-09-20T00:07:23.756Z,1012.13
2022-09-20T00:08:23.746Z,1012.13
2022-09-20T00:09:23.739Z,1012.11
2022-09-20T00:10:23.728Z,1012.15
2022-09-20T00:11:23.719Z,1012.12
2022-09-20T00:12:23.711Z,1012.12
2022-09-20T00:13:23.709Z,1012.15
2022-09-20T00:14:23.695Z,1012.10
2022-09-20T00:15:23.683Z,1012.12
2022-09-20T00:16:23.749Z,1012.15
2022-09-20T00:17:23.666Z,1012.14
2022-09-20T00:18:23.658Z,1012.12
2022-09-20T00:19:23.649Z,1012.14
2022-09-20T00:20:23.640Z,1012.12
2022-09-20T00:21:23.628Z,1012.12
2022-09-20T00:22:23.621Z,1012.19
2022-09-20T00:23:23.612Z,1012.20
2022-09-20T00:24:23.604Z,1012.16
2022-09-20T00:25:23.593Z,1012.16
2022-09-20T00:26:23.584Z,1012.17
2022-09-20T00:27:23.576Z,1012.17
2022-09-20T00:28:23.568Z,1012.18
2022-09-20T00:29:23.558Z,1012.24
2022-09-20T00:30:23.550Z,1012.20
2022-09-20T00:31:23.600Z,1012.22
2022-09-20T00:32:23.532Z,1012.22
2022-09-20T00:33:23.521Z,1012.23
2022-09-20T00:34:23.512Z,1012.25
2022-09-20T00:35:23.503Z,1012.21
2022-09-20T00:36:23.493Z,1012.21
2022-09-20T00:37:23.484Z,1012.17
2022-09-20T00:38:23.477Z,1012.17
2022-09-20T00:39:23.466Z,1012.20
2022-09-20T00:40:23.492Z,1012.19
2022-09-20T00:41:23.454Z,1012.18
2022-09-20T00:42:23.439Z,1012.14
2022-09-20T00:43:23.429Z,1012.20
2022-09-20T00:44:23.426Z,1012.17
2022-09-20T00:45:23.411Z,1012.19
2022-09-20T00:46:23.462Z,1012.16
2022-09-20T00:47:23.393Z,1012.21
2022-09-20T00:48:23.388Z,1012.20
2022-09-20T00:49:23.376Z,1012.20
2022-09-20T00:50:23.366Z,1012.18
2022-09-20T00:51:23.354Z,1012.19
2022-09-20T00:52:23.349Z,1012.19
2022-09-20T00:53:23.341Z,1012.17
2022-09-20T00:54:23.330Z,1012.17
2022-09-20T00:55:23.320Z,1012.20
2022-09-20T00:56:23.310Z,1012.20
2022-09-20T00:57:23.304Z,1012.21
2022-09-20T00:58:23.294Z,1012.23
2022-09-20T00:59:23.284Z,1012.21
2022-09-20T01:00:23.275Z,1012.22
2022-09-20T01:01:23.321Z,1012.22
2022-09-20T01:02:23.353Z,1012.24
2022-09-20T01:03:23.249Z,1012.23
2022-09-20T01:04:23.239Z,1012.26
2022-09-20T01:05:23.231Z,1012.26
2022-09-20T01:06:23.222Z,1012.23
2022-09-20T01:07:23.210Z,1012.26
2022-09-20T01:08:23.204Z,1012.24
2022-09-20T01:09:23.193Z,1012.25
2022-09-20T01:10:23.185Z,1012.26
2022-09-20T01:11:23.174Z,1012.26
2022-09-20T01:12:23.169Z,1012.26
2022-09-20T01:13:23.157Z,1012.24
2022-09-20T01:14:23.146Z,1012.24
2022-09-20T01:15:23.137Z,1012.22
2022-09-20T01:16:23.173Z,1012.26
2022-09-20T01:17:23.121Z,1012.23
2022-09-20T01:18:23.112Z,1012.25
2022-09-20T01:19:23.102Z,1012.24
2022-09-20T01:20:23.091Z,1012.24
2022-09-20T01:21:23.081Z,1012.25
2022-09-20T01:22:23.075Z,1012.24
2022-09-20T01:23:23.067Z,1012.23
2022-09-20T01:24:23.066Z,1012.21
2022-09-20T01:25:23.047Z,1012.20
2022-09-20T01:26:23.038Z,1012.22
2022-09-20T01:27:23.032Z,1012.22
2022-09-20T01:28:23.021Z,1012.20
2022-09-20T01:29:23.011Z,1012.22
2022-09-20T01:30:23.002Z,1012.22
2022-09-20T01:31:23.038Z,1012.22
2022-09-20T01:33:54.633Z,1012.22
2022-09-20T01:34:54.610Z,1012.23
2022-09-20T01:36:47.718Z,1012.20
2022-09-20T01:37:47.701Z,1012.23
2022-09-20T01:39:40.621Z,1012.22
2022-09-20T01:40:40.625Z,1012.22
2022-09-20T01:42:44.595Z,1012.21
2022-09-20T01:43:44.580Z,1012.22
2022-09-20T01:45:37.737Z,1012.27
2022-09-20T01:46:37.664Z,1012.31
2022-09-20T01:48:41.664Z,1012.31
2022-09-20T01:49:41.639Z,1012.31
2022-09-20T01:51:45.636Z,1012.32
2022-09-20T01:52:45.624Z,1012.34
2022-09-20T01:54:38.548Z,1012.40
2022-09-20T01:55:38.524Z,1012.37
2022-09-20T01:57:31.433Z,1012.36
2022-09-20T01:58:31.419Z,1012.35
2022-09-20T02:00:35.415Z,1012.40
2022-09-20T02:01:35.464Z,1012.43
2022-09-20T02:03:39.398Z,1012.45
2022-09-20T02:04:39.375Z,1012.48
2022-09-20T02:06:32.285Z,1012.45
2022-09-20T02:07:32.273Z,1012.45
2022-09-20T02:09:36.285Z,1012.45
2022-09-20T02:10:36.262Z,1012.42
2022-09-20T02:12:51.342Z,1012.45
2022-09-20T02:13:51.327Z,1012.44
2022-09-20T02:15:44.240Z,1012.46
2022-09-20T02:16:44.273Z,1012.44
2022-09-20T02:18:37.342Z,1012.43
2022-09-20T02:19:37.321Z,1012.44
2022-09-20T02:21:41.314Z,1012.45
2022-09-20T02:22:41.296Z,1012.46
2022-09-20T02:24:45.780Z,1012.47
2022-09-20T02:25:45.754Z,1012.49
2022-09-20T02:26:45.751Z,1012.48
2022-09-20T02:27:45.740Z,1012.47
2022-09-20T02:28:45.733Z,1012.52
2022-09-20T02:29:45.724Z,1012.50
2022-09-20T02:30:45.712Z,1012.50
2022-09-20T02:31:45.772Z,1012.54
2022-09-20T02:32:45.694Z,1012.53
2022-09-20T02:33:45.689Z,1012.55
2022-09-20T02:34:45.676Z,1012.56
2022-09-20T02:35:45.669Z,1012.54
2022-09-20T02:36:45.659Z,1012.53
2022-09-20T02:37:45.651Z,1012.55
2022-09-20T02:38:45.643Z,1012.57
2022-09-20T02:39:45.629Z,1012.57
2022-09-20T02:40:45.658Z,1012.56
2022-09-20T02:41:45.613Z,1012.58
2022-09-20T02:42:45.602Z,1012.56
2022-09-20T02:43:45.592Z,1012.53
2022-09-20T02:44:45.584Z,1012.56
2022-09-20T02:45:45.634Z,1012.57
2022-09-20T02:46:45.577Z,1012.54
2022-09-20T02:47:45.564Z,1012.58
2022-09-20T02:48:45.547Z,1012.59
2022-09-20T02:49:45.540Z,1012.53
2022-09-20T02:50:45.525Z,1012.57
2022-09-20T02:51:45.519Z,1012.58
2022-09-20T02:52:45.513Z,1012.55
2022-09-20T02:53:45.500Z,1012.57
2022-09-20T02:54:45.491Z,1012.60
2022-09-20T02:55:45.483Z,1012.64
2022-09-20T02:56:45.474Z,1012.61
2022-09-20T02:57:45.468Z,1012.59
2022-09-20T02:58:45.455Z,1012.65
2022-09-20T02:59:45.468Z,1012.64
2022-09-20T03:00:45.610Z,1012.62
2022-09-20T03:01:45.524Z,1012.64
2022-09-20T03:02:45.519Z,1012.64
2022-09-20T03:03:45.410Z,1012.63
2022-09-20T03:04:45.401Z,1012.62
2022-09-20T03:05:45.391Z,1012.60
2022-09-20T03:06:45.385Z,1012.60
2022-09-20T03:07:45.372Z,1012.63
2022-09-20T03:08:45.361Z,1012.63
2022-09-20T03:09:45.353Z,1012.63
2022-09-20T03:10:45.345Z,1012.60
2022-09-20T03:11:45.334Z,1012.62
2022-09-20T03:12:45.326Z,1012.67
2022-09-20T03:13:45.317Z,1012.66
2022-09-20T03:14:45.308Z,1012.65
2022-09-20T03:15:45.298Z,1012.71
2022-09-20T03:16:48.762Z,1012.70
2022-09-20T03:17:45.281Z,1012.72
2022-09-20T03:18:45.269Z,1012.73
2022-09-20T03:19:45.272Z,1012.73
2022-09-20T03:20:45.253Z,1012.73
2022-09-20T03:21:45.244Z,1012.72
2022-09-20T03:22:45.234Z,1012.76
2022-09-20T03:23:45.225Z,1012.74
2022-09-20T03:24:45.217Z,1012.75
2022-09-20T03:25:45.207Z,1012.73
2022-09-20T03:26:45.198Z,1012.73
2022-09-20T03:27:45.191Z,1012.73
2022-09-20T03:28:45.181Z,1012.73
2022-09-20T03:29:45.168Z,1012.75
2022-09-20T03:30:45.161Z,1012.76
2022-09-20T03:31:45.219Z,1012.77
2022-09-20T03:32:45.143Z,1012.75
2022-09-20T03:33:45.131Z,1012.76
2022-09-20T03:34:45.122Z,1012.79
2022-09-20T03:35:45.113Z,1012.82
2022-09-20T03:36:45.106Z,1012.80
2022-09-20T03:37:45.096Z,1012.83
2022-09-20T03:38:45.084Z,1012.83
2022-09-20T03:39:45.083Z,1012.85
2022-09-20T03:40:46.678Z,1012.87
2022-09-20T03:41:45.065Z,1012.83
2022-09-20T03:42:45.052Z,1012.83
2022-09-20T03:43:45.041Z,1012.86
2022-09-20T03:44:45.032Z,1012.84
2022-09-20T03:45:45.122Z,1012.85
2022-09-20T03:46:45.012Z,1012.85
2022-09-20T03:47:45.006Z,1012.86
2022-09-20T03:48:44.996Z,1012.84
2022-09-20T03:49:44.987Z,1012.86
2022-09-20T03:50:44.982Z,1012.83
2022-09-20T03:51:44.970Z,1012.86
2022-09-20T03:52:44.961Z,1012.86
2022-09-20T03:53:44.956Z,1012.82
2022-09-20T03:54:44.942Z,1012.83
2022-09-20T03:55:44.932Z,1012.82
2022-09-20T03:56:44.921Z,1012.83
2022-09-20T03:57:44.912Z,1012.83
2022-09-20T03:58:44.906Z,1012.83
2022-09-20T03:59:44.896Z,1012.85
2022-09-20T04:00:44.925Z,1012.84
2022-09-20T04:01:44.882Z,1012.85
2022-09-20T04:02:44.909Z,1012.90
2022-09-20T04:03:44.859Z,1012.86
2022-09-20T04:04:44.856Z,1012.90
2022-09-20T04:05:44.845Z,1012.85
2022-09-20T04:06:44.841Z,1012.87
2022-09-20T04:07:44.825Z,1012.87
2022-09-20T04:08:44.817Z,1012.86
2022-09-20T04:09:44.809Z,1012.93
2022-09-20T04:10:44.796Z,1012.90
2022-09-20T04:11:44.794Z,1012.92
2022-09-20T04:12:44.793Z,1012.92
2022-09-20T04:13:44.781Z,1012.95
2022-09-20T04:14:44.768Z,1012.93
2022-09-20T04:15:44.754Z,1012.94
2022-09-20T04:16:44.792Z,1012.94
2022-09-20T04:17:44.742Z,1013.01
2022-09-20T04:18:44.739Z,1013.02
2022-09-20T04:19:44.732Z,1013.03
2022-09-20T04:20:44.720Z,1012.97
2022-09-20T04:21:44.701Z,1013.01
2022-09-20T04:22:44.697Z,1013.00
2022-09-20T04:23:44.687Z,1012.98
2022-09-20T04:24:44.669Z,1013.00
2022-09-20T04:25:44.664Z,1012.97
2022-09-20T04:26:44.656Z,1013.01
2022-09-20T04:27:44.644Z,1013.03
2022-09-20T04:28:44.644Z,1013.04
2022-09-20T04:29:44.629Z,1013.05
2022-09-20T04:30:44.621Z,1013.08
2022-09-20T04:31:44.679Z,1013.06
2022-09-20T04:32:44.604Z,1013.04
2022-09-20T04:33:44.594Z,1013.06
2022-09-20T04:34:44.588Z,1013.04
2022-09-20T04:35:44.570Z,1013.03
2022-09-20T04:36:44.570Z,1013.02
2022-09-20T04:37:44.558Z,1013.04
2022-09-20T04:38:44.550Z,1013.04
2022-09-20T04:39:44.541Z,1013.10
2022-09-20T04:40:44.633Z,1013.07
2022-09-20T04:41:44.523Z,1013.09
2022-09-20T04:42:44.516Z,1013.12
2022-09-20T04:43:44.504Z,1013.07
2022-09-20T04:44:44.501Z,1013.12
2022-09-20T04:45:44.538Z,1013.08
2022-09-20T04:46:44.486Z,1013.12
2022-09-20T04:47:44.471Z,1013.11
2022-09-20T04:48:44.462Z,1013.12
2022-09-20T04:49:44.453Z,1013.09
2022-09-20T04:50:44.449Z,1013.10
2022-09-20T04:51:44.436Z,1013.12
2022-09-20T04:52:44.428Z,1013.08
2022-09-20T04:53:44.418Z,1013.13
2022-09-20T04:54:44.417Z,1013.12
2022-09-20T04:55:44.441Z,1013.08
2022-09-20T04:56:44.393Z,1013.10
2022-09-20T04:57:44.378Z,1013.10
2022-09-20T04:58:44.373Z,1013.11
2022-09-20T04:59:44.363Z,1013.13
2022-09-20T05:00:44.422Z,1013.14
2022-09-20T05:01:44.401Z,1013.11
2022-09-20T05:02:44.398Z,1013.13
2022-09-20T05:03:44.331Z,1013.15
2022-09-20T05:04:44.326Z,1013.17
2022-09-20T05:05:44.439Z,1013.15
2022-09-20T05:06:44.314Z,1013.15
2022-09-20T05:07:44.438Z,1013.15
2022-09-20T05:08:44.287Z,1013.16
2022-09-20T05:09:44.276Z,1013.14
2022-09-20T05:10:44.266Z,1013.18
2022-09-20T05:11:44.257Z,1013.22
2022-09-20T05:12:44.252Z,1013.24
2022-09-20T05:13:44.244Z,1013.26
2022-09-20T05:14:44.232Z,1013.25
2022-09-20T05:15:44.222Z,1013.27
2022-09-20T05:16:44.277Z,1013.29
2022-09-20T05:17:44.207Z,1013.30
2022-09-20T05:18:44.196Z,1013.30
2022-09-20T05:19:44.189Z,1013.35
2022-09-20T05:20:44.177Z,1013.31
2022-09-20T05:21:44.172Z,1013.35
2022-09-20T05:22:44.161Z,1013.31
2022-09-20T05:23:44.159Z,1013.37
2022-09-20T05:24:44.148Z,1013.35
2022-09-20T05:25:44.138Z,1013.38
2022-09-20T05:26:44.124Z,1013.44
2022-09-20T05:27:44.121Z,1013.41
2022-09-20T05:28:44.107Z,1013.43
2022-09-20T05:29:44.100Z,1013.46
2022-09-20T05:30:44.094Z,1013.44
2022-09-20T05:31:44.110Z,1013.48
2022-09-20T05:32:44.091Z,1013.48
2022-09-20T05:33:44.064Z,1013.51
2022-09-20T05:34:44.064Z,1013.51
2022-09-20T05:35:44.049Z,1013.53
2022-09-20T05:36:44.038Z,1013.54
2022-09-20T05:37:44.038Z,1013.54
2022-09-20T05:38:44.024Z,1013.53
2022-09-20T05:39:44.014Z,1013.57
2022-09-20T05:40:44.560Z,1013.53
2022-09-20T05:41:43.997Z,1013.50
2022-09-20T05:42:44.000Z,1013.53
2022-09-20T05:43:43.986Z,1013.53
2022-09-20T05:44:43.970Z,1013.55
2022-09-20T05:45:43.972Z,1013.52
2022-09-20T05:46:43.952Z,1013.58
2022-09-20T05:47:43.951Z,1013.59
2022-09-20T05:48:43.938Z,1013.60
2022-09-20T05:49:43.931Z,1013.61
2022-09-20T05:50:43.925Z,1013.64
2022-09-20T05:51:43.927Z,1013.60
2022-09-20T05:52:43.908Z,1013.64
2022-09-20T05:53:43.902Z,1013.63
2022-09-20T05:54:43.889Z,1013.61
2022-09-20T05:55:43.881Z,1013.62
2022-09-20T05:56:43.874Z,1013.59
2022-09-20T05:57:43.864Z,1013.66
2022-09-20T05:58:43.860Z,1013.65
2022-09-20T05:59:43.847Z,1013.64
2022-09-20T06:00:43.844Z,1013.70
2022-09-20T06:01:43.838Z,1013.71
2022-09-20T06:02:43.832Z,1013.72
2022-09-20T06:03:43.824Z,1013.72
2022-09-20T06:04:43.814Z,1013.77
2022-09-20T06:05:43.810Z,1013.77
2022-09-20T06:06:43.798Z,1013.80
2022-09-20T06:07:43.815Z,1013.82
2022-09-20T06:08:43.784Z,1013.83
2022-09-20T06:09:43.774Z,1013.84
2022-09-20T06:10:43.765Z,1013.84
2022-09-20T06:11:46.310Z,1013.80
2022-09-20T06:12:43.779Z,1013.85
2022-09-20T06:13:43.745Z,1013.87
2022-09-20T06:14:43.733Z,1013.83
2022-09-20T06:15:43.727Z,1013.86
2022-09-20T06:16:43.761Z,1013.90
2022-09-20T06:17:43.713Z,1013.89
2022-09-20T06:18:43.704Z,1013.92
2022-09-20T06:19:43.696Z,1013.92
2022-09-20T06:20:43.697Z,1013.91
2022-09-20T06:21:43.681Z,1013.95
2022-09-20T06:22:43.674Z,1013.96
2022-09-20T06:23:43.661Z,1013.96
2022-09-20T06:24:43.657Z,1013.99
2022-09-20T06:25:43.651Z,1013.98
2022-09-20T06:26:43.644Z,1013.97
2022-09-20T06:27:43.632Z,1014.00
2022-09-20T06:28:43.625Z,1014.04
2022-09-20T06:29:43.618Z,1013.99
2022-09-20T06:30:43.659Z,1014.01
2022-09-20T06:31:43.600Z,1014.03
2022-09-20T06:32:43.591Z,1014.02
2022-09-20T06:33:43.587Z,1014.03
2022-09-20T06:34:43.580Z,1014.06
2022-09-20T06:35:43.570Z,1014.05
2022-09-20T06:36:43.563Z,1014.05
2022-09-20T06:37:43.551Z,1014.07
2022-09-20T06:38:43.546Z,1014.04
2022-09-20T06:39:43.534Z,1014.03
2022-09-20T06:40:43.531Z,1014.07
2022-09-20T06:41:43.524Z,1014.05
2022-09-20T06:42:43.513Z,1014.05
2022-09-20T06:43:43.504Z,1014.03
2022-09-20T06:44:43.496Z,1014.09
2022-09-20T06:45:43.519Z,1014.05
2022-09-20T06:46:43.480Z,1014.09
2022-09-20T06:47:43.474Z,1014.09
2022-09-20T06:48:43.462Z,1014.10
2022-09-20T06:49:43.461Z,1014.09
2022-09-20T06:50:43.448Z,1014.10
2022-09-20T06:51:43.443Z,1014.09
2022-09-20T06:52:43.430Z,1014.11
2022-09-20T06:53:43.428Z,1014.14
2022-09-20T06:54:43.417Z,1014.13
2022-09-20T06:55:43.409Z,1014.12
2022-09-20T06:56:43.399Z,1014.13
2022-09-20T06:57:43.406Z,1014.19
2022-09-20T06:58:43.388Z,1014.16
2022-09-20T06:59:43.375Z,1014.17
2022-09-20T07:00:43.467Z,1014.22
2022-09-20T07:01:43.434Z,1014.28
2022-09-20T07:02:43.355Z,1014.26
2022-09-20T07:03:43.348Z,1014.28
2022-09-20T07:04:43.337Z,1014.30
2022-09-20T07:05:43.329Z,1014.30
2022-09-20T07:06:43.318Z,1014.30
2022-09-20T07:07:43.312Z,1014.29
2022-09-20T07:08:43.309Z,1014.29
2022-09-20T07:09:43.313Z,1014.30
2022-09-20T07:10:43.298Z,1014.35
2022-09-20T07:11:43.281Z,1014.31
2022-09-20T07:12:43.275Z,1014.32
2022-09-20T07:13:43.266Z,1014.31
2022-09-20T07:14:43.259Z,1014.34
2022-09-20T07:15:43.252Z,1014.33
2022-09-20T07:16:43.371Z,1014.34
2022-09-20T07:17:43.235Z,1014.38
2022-09-20T07:18:43.235Z,1014.37
2022-09-20T07:19:43.222Z,1014.35
2022-09-20T07:20:43.209Z,1014.41
2022-09-20T07:21:43.204Z,1014.41
2022-09-20T07:22:43.205Z,1014.41
2022-09-20T07:23:43.184Z,1014.43
2022-09-20T07:24:43.178Z,1014.40
2022-09-20T07:25:43.173Z,1014.46
2022-09-20T07:26:43.164Z,1014.47
2022-09-20T07:27:43.156Z,1014.44
2022-09-20T07:28:43.149Z,1014.42
2022-09-20T07:29:43.141Z,1014.44
2022-09-20T07:30:43.134Z,1014.47
2022-09-20T07:31:43.169Z,1014.46
2022-09-20T07:32:43.117Z,1014.50
2022-09-20T07:33:51.777Z,1014.49
2022-09-20T07:35:36.545Z,1014.46
2022-09-20T07:36:36.516Z,1014.48
2022-09-20T07:37:37.240Z,1014.51
2022-09-20T07:38:36.497Z,1014.53
2022-09-20T07:39:36.487Z,1014.53
2022-09-20T07:40:36.562Z,1014.51
2022-09-20T07:41:36.475Z,1014.51
2022-09-20T07:42:36.465Z,1014.57
2022-09-20T07:43:36.459Z,1014.55
2022-09-20T07:44:36.453Z,1014.55
2022-09-20T07:45:36.475Z,1014.57
2022-09-20T07:46:36.439Z,1014.60
2022-09-20T07:47:36.429Z,1014.54
2022-09-20T07:48:36.420Z,1014.56
2022-09-20T07:49:36.416Z,1014.57
2022-09-20T07:50:36.405Z,1014.63
2022-09-20T07:51:36.397Z,1014.61
2022-09-20T07:52:36.389Z,1014.61
2022-09-20T07:53:36.380Z,1014.63
2022-09-20T07:54:36.371Z,1014.62
2022-09-20T07:55:36.366Z,1014.65
2022-09-20T07:56:36.357Z,1014.65
2022-09-20T07:57:36.351Z,1014.66
2022-09-20T07:58:36.339Z,1014.72
2022-09-20T07:59:36.337Z,1014.73
2022-09-20T08:00:36.331Z,1014.70
2022-09-20T08:01:36.377Z,1014.71
2022-09-20T08:02:36.388Z,1014.73
2022-09-20T08:03:36.309Z,1014.74
2022-09-20T08:04:36.305Z,1014.79
2022-09-20T08:05:36.299Z,1014.74
2022-09-20T08:06:36.282Z,1014.72
2022-09-20T08:07:36.274Z,1014.78
2022-09-20T08:08:36.265Z,1014.76
2022-09-20T08:09:36.261Z,1014.75
2022-09-20T08:10:36.251Z,1014.76
2022-09-20T08:11:36.247Z,1014.77
2022-09-20T08:14:36.218Z,1014.76
2022-09-20T08:15:36.207Z,1014.78
2022-09-20T08:16:36.235Z,1014.76
2022-09-20T08:17:36.201Z,1014.77
2022-09-20T08:18:36.191Z,1014.79
2022-09-20T08:19:36.184Z,1014.82
2022-09-20T08:20:36.174Z,1014.77
2022-09-20T08:21:36.163Z,1014.81
2022-09-20T08:22:36.158Z,1014.83
2022-09-20T08:23:36.153Z,1014.78
2022-09-20T08:24:36.142Z,1014.81
2022-09-20T08:25:36.136Z,1014.80
2022-09-20T08:26:36.123Z,1014.83
2022-09-20T08:27:36.121Z,1014.84
2022-09-20T08:28:36.109Z,1014.85
2022-09-20T08:29:36.111Z,1014.87
2022-09-20T08:30:36.098Z,1014.84
2022-09-20T08:31:36.130Z,1014.87
2022-09-20T08:32:36.087Z,1014.90
2022-09-20T08:33:36.074Z,1014.89
2022-09-20T08:34:36.067Z,1014.85
2022-09-20T08:35:38.157Z,1014.89
2022-09-20T08:36:36.945Z,1014.85
2022-09-20T08:37:36.102Z,1014.88
2022-09-20T08:40:36.043Z,1014.90
2022-09-20T08:41:36.014Z,1014.88
2022-09-20T08:42:42.017Z,1014.91
2022-09-20T08:43:35.997Z,1014.93
2022-09-20T08:44:36.000Z,1014.95
2022-09-20T08:45:35.991Z,1014.92
2022-09-20T08:46:36.041Z,1014.96
2022-09-20T08:47:36.047Z,1014.93
2022-09-20T08:48:35.960Z,1014.90
2022-09-20T08:49:35.957Z,1014.94
2022-09-20T08:50:35.958Z,1014.94
2022-09-20T08:51:35.941Z,1014.92
2022-09-20T08:52:36.629Z,1014.91
2022-09-20T08:53:35.922Z,1014.90
2022-09-20T08:54:35.919Z,1014.90
2022-09-20T08:55:37.225Z,1014.91
2022-09-20T08:56:35.902Z,1014.95
2022-09-20T08:57:35.899Z,1014.91
2022-09-20T08:58:35.889Z,1014.95
2022-09-20T08:59:35.883Z,1014.97
2022-09-20T09:00:35.874Z,1014.97
2022-09-20T09:01:35.865Z,1014.98
2022-09-20T09:02:35.913Z,1014.95
2022-09-20T09:03:35.849Z,1014.98
2022-09-20T09:04:35.849Z,1015.02
2022-09-20T09:05:35.836Z,1014.98
2022-09-20T09:06:35.830Z,1014.96
2022-09-20T09:07:35.821Z,1014.97
2022-09-20T09:08:38.146Z,1014.95
2022-09-20T09:09:37.666Z,1014.92
2022-09-20T09:10:35.800Z,1014.95
2022-09-20T09:11:35.795Z,1014.96
2022-09-20T09:12:35.788Z,1014.99
2022-09-20T09:13:35.781Z,1014.98
2022-09-20T09:14:35.770Z,1014.97
2022-09-20T09:15:35.762Z,1014.99
2022-09-20T09:16:36.462Z,1014.98
2022-09-20T09:17:35.750Z,1015.04
2022-09-20T09:18:35.743Z,1015.01
2022-09-20T09:19:35.728Z,1014.97
2022-09-20T09:20:35.730Z,1015.02
2022-09-20T09:21:35.723Z,1015.03
2022-09-20T09:22:35.718Z,1015.07
2022-09-20T09:23:35.705Z,1014.98
2022-09-20T09:24:35.702Z,1015.04
2022-09-20T09:25:35.689Z,1015.06
2022-09-20T09:26:35.688Z,1015.05
2022-09-20T09:27:35.679Z,1015.01
2022-09-20T09:28:35.674Z,1015.05
2022-09-20T09:29:35.669Z,1015.04
2022-09-20T09:30:35.654Z,1015.05
2022-09-20T09:31:35.726Z,1015.01
2022-09-20T09:32:35.640Z,1014.99
2022-09-20T09:33:35.637Z,1015.02
2022-09-20T09:34:35.632Z,1015.04
2022-09-20T09:35:35.624Z,1015.02
2022-09-20T09:36:35.618Z,1015.02
2022-09-20T09:37:35.619Z,1015.03
2022-09-20T09:38:35.602Z,1015.04
2022-09-20T09:39:35.589Z,1015.05
2022-09-20T09:40:35.633Z,1015.07
2022-09-20T09:41:35.593Z,1015.12
2022-09-20T09:42:35.581Z,1015.10
2022-09-20T09:43:35.587Z,1015.15
2022-09-20T09:44:35.577Z,1015.09
2022-09-20T09:45:35.625Z,1015.09
2022-09-20T09:46:35.553Z,1015.13
2022-09-20T09:47:35.547Z,1015.10
2022-09-20T09:48:38.592Z,1015.07
2022-09-20T09:49:35.532Z,1015.08
2022-09-20T09:50:35.532Z,1015.09
2022-09-20T09:51:35.521Z,1015.12
2022-09-20T09:52:35.522Z,1015.08
2022-09-20T09:53:35.507Z,1015.06
2022-09-20T09:54:35.502Z,1015.01
2022-09-20T09:55:35.496Z,1014.97
2022-09-20T09:56:35.505Z,1015.06
2022-09-20T09:57:35.486Z,1014.99
2022-09-20T09:58:35.482Z,1014.98
2022-09-20T09:59:35.467Z,1014.92
2022-09-20T10:00:35.472Z,1014.92
2022-09-20T10:01:35.512Z,1014.98
2022-09-20T10:02:35.513Z,1014.97
2022-09-20T10:03:35.444Z,1014.97
2022-09-20T10:04:35.450Z,1014.99
2022-09-20T10:05:35.436Z,1014.98
2022-09-20T10:06:35.435Z,1015.02
2022-09-20T10:07:35.427Z,1015.03
2022-09-20T10:08:35.436Z,1015.02
2022-09-20T10:09:35.424Z,1015.05
2022-09-20T10:10:35.411Z,1015.02
2022-09-20T10:11:35.401Z,1015.01
2022-09-20T10:12:35.400Z,1015.01
2022-09-20T10:13:40.320Z,1015.03
2022-09-20T10:14:35.391Z,1015.05
2022-09-20T10:15:35.387Z,1015.08
2022-09-20T10:16:35.411Z,1015.08
2022-09-20T10:17:35.369Z,1015.12
2022-09-20T10:18:35.367Z,1015.10
2022-09-20T10:19:35.374Z,1015.09
2022-09-20T10:20:35.353Z,1015.13
2022-09-20T10:21:35.348Z,1015.05
2022-09-20T10:22:35.346Z,1015.09
2022-09-20T10:24:01.278Z,1015.07
2022-09-20T10:24:35.332Z,1015.07
2022-09-20T10:25:35.326Z,1015.07
2022-09-20T10:26:35.324Z,1015.08
2022-09-20T10:27:35.314Z,1015.09
2022-09-20T10:28:35.314Z,1015.07
2022-09-20T10:29:35.306Z,1015.09
2022-09-20T10:30:35.323Z,1015.06
2022-09-20T10:31:35.358Z,1015.05
2022-09-20T10:32:35.296Z,1015.08
2022-09-20T10:33:35.287Z,1015.06
2022-09-20T10:34:35.280Z,1015.02
2022-09-20T10:35:35.283Z,1015.04
2022-09-20T10:36:35.268Z,1015.08
2022-09-20T10:37:35.264Z,1015.13
2022-09-20T10:38:35.257Z,1015.18
2022-09-20T10:39:35.252Z,1015.17
2022-09-20T10:40:35.282Z,1015.19
2022-09-20T10:41:35.250Z,1015.17
2022-09-20T10:42:35.237Z,1015.21
2022-09-20T10:43:35.233Z,1015.22
2022-09-20T10:44:35.225Z,1015.23
2022-09-20T10:46:35.248Z,1015.29
2022-09-20T10:47:35.214Z,1015.24
2022-09-20T10:48:35.204Z,1015.24
2022-09-20T10:49:35.200Z,1015.25
2022-09-20T10:50:35.193Z,1015.20
2022-09-20T10:51:35.187Z,1015.19
2022-09-20T10:52:35.184Z,1015.28
2022-09-20T10:53:35.176Z,1015.34
2022-09-20T10:54:35.170Z,1015.32
2022-09-20T10:55:35.162Z,1015.36
2022-09-20T10:56:35.156Z,1015.46
2022-09-20T10:57:35.279Z,1015.52
2022-09-20T10:58:35.148Z,1015.51
2022-09-20T10:59:35.141Z,1015.59
2022-09-20T11:00:35.194Z,1015.67
2022-09-20T11:01:35.228Z,1015.65
2022-09-20T11:02:35.165Z,1015.58
2022-09-20T11:03:35.122Z,1015.58
2022-09-20T11:04:35.111Z,1015.56
2022-09-20T11:05:35.110Z,1015.58
2022-09-20T11:06:35.099Z,1015.58
2022-09-20T11:07:35.091Z,1015.54
2022-09-20T11:08:35.082Z,1015.54
2022-09-20T11:09:35.091Z,1015.55
2022-09-20T11:10:35.071Z,1015.54
2022-09-20T11:11:35.064Z,1015.52
2022-09-20T11:12:35.057Z,1015.52
2022-09-20T11:13:35.057Z,1015.51
2022-09-20T11:14:35.048Z,1015.49
2022-09-20T11:15:35.040Z,1015.50
2022-09-20T11:16:35.104Z,1015.57
2022-09-20T11:17:35.024Z,1015.51
2022-09-20T11:18:35.018Z,1015.55
2022-09-20T11:19:35.009Z,1015.56
2022-09-20T11:20:35.005Z,1015.60
2022-09-20T11:21:34.996Z,1015.58
2022-09-20T11:22:34.989Z,1015.49
2022-09-20T11:23:34.981Z,1015.49
2022-09-20T11:24:34.976Z,1015.41
2022-09-20T11:25:34.966Z,1015.40
2022-09-20T11:26:34.962Z,1015.42
2022-09-20T11:27:34.954Z,1015.42
2022-09-20T11:28:34.946Z,1015.40
2022-09-20T11:29:34.939Z,1015.37
2022-09-20T11:30:34.933Z,1015.37
2022-09-20T11:31:34.963Z,1015.41
2022-09-20T11:32:34.919Z,1015.46
2022-09-20T11:33:38.095Z,1015.47
2022-09-20T11:34:34.908Z,1015.48
2022-09-20T11:35:34.899Z,1015.46
2022-09-20T11:36:34.890Z,1015.50
2022-09-20T11:37:34.886Z,1015.49
2022-09-20T11:38:34.877Z,1015.55
2022-09-20T11:39:34.869Z,1015.55
2022-09-20T11:40:34.931Z,1015.55
2022-09-20T11:41:34.856Z,1015.60
2022-09-20T11:42:34.857Z,1015.57
2022-09-20T11:43:34.843Z,1015.53
2022-09-20T11:44:34.833Z,1015.57
2022-09-20T11:45:34.867Z,1015.59
2022-09-20T11:46:34.824Z,1015.64
2022-09-20T11:47:53.883Z,1015.63
2022-09-20T11:48:34.808Z,1015.59
2022-09-20T11:49:34.807Z,1015.59
2022-09-20T11:50:34.798Z,1015.64
2022-09-20T11:51:34.789Z,1015.62
2022-09-20T11:52:34.796Z,1015.61
2022-09-20T11:53:37.018Z,1015.60
2022-09-20T11:54:34.773Z,1015.60
2022-09-20T11:55:34.763Z,1015.65
2022-09-20T11:56:34.757Z,1015.62
2022-09-20T11:57:34.760Z,1015.65
2022-09-20T11:58:34.745Z,1015.65
2022-09-20T11:59:34.743Z,1015.67
2022-09-20T12:00:34.728Z,1015.65
2022-09-20T12:01:34.726Z,1015.65
2022-09-20T12:02:34.809Z,1015.70
2022-09-20T12:03:34.744Z,1015.69
2022-09-20T12:04:35.326Z,1015.65
2022-09-20T12:05:34.705Z,1015.67
2022-09-20T12:06:34.693Z,1015.66
2022-09-20T12:07:34.687Z,1015.65
2022-09-20T12:08:34.682Z,1015.63
2022-09-20T12:09:34.677Z,1015.67
2022-09-20T12:10:34.673Z,1015.63
2022-09-20T12:11:34.661Z,1015.64
2022-09-20T12:12:34.661Z,1015.62
2022-09-20T12:13:34.657Z,1015.63
2022-09-20T12:14:34.646Z,1015.66
2022-09-20T12:15:34.638Z,1015.65
2022-09-20T12:16:34.651Z,1015.63
2022-09-20T12:17:34.625Z,1015.66
2022-09-20T12:18:34.620Z,1015.72
2022-09-20T12:19:34.611Z,1015.70
2022-09-20T12:20:34.620Z,1015.69
2022-09-20T12:21:34.604Z,1015.74
2022-09-20T12:22:34.596Z,1015.76
2022-09-20T12:23:34.591Z,1015.76
2022-09-20T12:24:34.587Z,1015.78
2022-09-20T12:25:34.579Z,1015.78
2022-09-20T12:26:34.572Z,1015.75
2022-09-20T12:27:34.564Z,1015.70
2022-09-20T12:28:34.565Z,1015.71
2022-09-20T12:29:34.553Z,1015.70